sensor_id;sensor_type;location;lat;lon;timestamp;temperature;humidity
35129;DHT22;21301;43.626;10.580;2023-07-13T00:02:24;29.10;99.90
35129;DHT22;21301;43.626;10.580;2023-07-13T00:04:52;29.20;19.20
35129;DHT22;21301;43.626;10.580;2023-07-13T00:07:18;29.20;99.90
35129;DHT22;21301;43.626;10.580;2023-07-13T00:09:47;29.30;99.90
35129;DHT22;21301;43.626;10.580;2023-07-13T00:12:25;29.20;99.90
35129;DHT22;21301;43.626;10.580;2023-07-13T00:14:51;29.30;58.30
35129;DHT22;21301;43.626;10.580;2023-07-13T00:17:17;29.30;1.00
35129;DHT22;21301;43.626;10.580;2023-07-13T00:19:42;29.30;99.90
35129;DHT22;21301;43.626;10.580;2023-07-13T00:22:09;29.30;99.90
35129;DHT22;21301;43.626;10.580;2023-07-13T00:24:35;29.30;99.90
35129;DHT22;21301;43.626;10.580;2023-07-13T00:27:02;29.40;97.10
35129;DHT22;21301;43.626;10.580;2023-07-13T00:29:29;29.30;99.90
35129;DHT22;21301;43.626;10.580;2023-07-13T00:31:55;29.30;77.00
35129;DHT22;21301;43.626;10.580;2023-07-13T00:34:23;29.30;1.00
35129;DHT22;21301;43.626;10.580;2023-07-13T00:36:49;29.20;99.90
35129;DHT22;21301;43.626;10.580;2023-07-13T00:39:15;29.20;99.90
35129;DHT22;21301;43.626;10.580;2023-07-13T00:41:40;29.10;99.90
35129;DHT22;21301;43.626;10.580;2023-07-13T00:44:16;29.00;81.40
35129;DHT22;21301;43.626;10.580;2023-07-13T00:50:55;28.70;73.40
35129;DHT22;21301;43.626;10.580;2023-07-13T00:53:25;28.50;34.90
35129;DHT22;21301;43.626;10.580;2023-07-13T00:55:52;28.40;99.90
35129;DHT22;21301;43.626;10.580;2023-07-13T00:58:27;28.30;99.90
35129;DHT22;21301;43.626;10.580;2023-07-13T01:00:54;28.30;99.90
35129;DHT22;21301;43.626;10.580;2023-07-13T01:07:01;28.20;34.50
35129;DHT22;21301;43.626;10.580;2023-07-13T01:09:27;28.20;12.00
35129;DHT22;21301;43.626;10.580;2023-07-13T01:11:56;28.10;46.40
35129;DHT22;21301;43.626;10.580;2023-07-13T01:14:23;28.00;99.60
35129;DHT22;21301;43.626;10.580;2023-07-13T01:16:51;28.00;99.90
35129;DHT22;21301;43.626;10.580;2023-07-13T01:19:32;28.00;99.90
35129;DHT22;21301;43.626;10.580;2023-07-13T01:22:23;28.00;99.90
35129;DHT22;21301;43.626;10.580;2023-07-13T01:24:53;27.80;99.90
35129;DHT22;21301;43.626;10.580;2023-07-13T01:27:24;27.70;99.90
35129;DHT22;21301;43.626;10.580;2023-07-13T01:30:28;27.70;99.90
35129;DHT22;21301;43.626;10.580;2023-07-13T01:32:54;27.70;99.90
35129;DHT22;21301;43.626;10.580;2023-07-13T01:35:20;27.70;99.90
35129;DHT22;21301;43.626;10.580;2023-07-13T01:37:46;27.70;99.90
35129;DHT22;21301;43.626;10.580;2023-07-13T01:40:14;27.60;99.90
35129;DHT22;21301;43.626;10.580;2023-07-13T01:42:41;27.50;99.90
35129;DHT22;21301;43.626;10.580;2023-07-13T01:45:07;27.50;99.90
35129;DHT22;21301;43.626;10.580;2023-07-13T01:47:33;27.70;99.90
35129;DHT22;21301;43.626;10.580;2023-07-13T01:49:58;27.70;99.90
35129;DHT22;21301;43.626;10.580;2023-07-13T01:52:25;27.80;99.90
35129;DHT22;21301;43.626;10.580;2023-07-13T01:54:50;27.80;99.90
35129;DHT22;21301;43.626;10.580;2023-07-13T01:57:16;27.90;99.90
35129;DHT22;21301;43.626;10.580;2023-07-13T01:59:43;27.80;99.90
35129;DHT22;21301;43.626;10.580;2023-07-13T02:02:09;27.80;99.90
35129;DHT22;21301;43.626;10.580;2023-07-13T02:04:36;27.80;99.90
35129;DHT22;21301;43.626;10.580;2023-07-13T02:07:03;27.90;99.90
35129;DHT22;21301;43.626;10.580;2023-07-13T02:09:29;28.00;99.90
35129;DHT22;21301;43.626;10.580;2023-07-13T02:11:54;28.00;99.90
35129;DHT22;21301;43.626;10.580;2023-07-13T02:14:59;28.20;99.90
35129;DHT22;21301;43.626;10.580;2023-07-13T02:17:26;28.10;79.20
35129;DHT22;21301;43.626;10.580;2023-07-13T02:19:54;28.10;99.90
35129;DHT22;21301;43.626;10.580;2023-07-13T02:22:21;28.00;99.90
35129;DHT22;21301;43.626;10.580;2023-07-13T02:24:48;28.00;99.90
35129;DHT22;21301;43.626;10.580;2023-07-13T02:27:17;28.10;99.90
35129;DHT22;21301;43.626;10.580;2023-07-13T02:29:43;28.10;99.90
35129;DHT22;21301;43.626;10.580;2023-07-13T02:32:09;28.10;63.10
35129;DHT22;21301;43.626;10.580;2023-07-13T02:34:35;28.20;1.00
35129;DHT22;21301;43.626;10.580;2023-07-13T02:37:05;28.20;99.90
35129;DHT22;21301;43.626;10.580;2023-07-13T02:39:31;28.20;99.90
35129;DHT22;21301;43.626;10.580;2023-07-13T02:41:59;28.20;1.00
35129;DHT22;21301;43.626;10.580;2023-07-13T02:44:26;28.20;99.90
35129;DHT22;21301;43.626;10.580;2023-07-13T02:46:52;28.10;77.20
35129;DHT22;21301;43.626;10.580;2023-07-13T02:49:19;28.20;4.30
35129;DHT22;21301;43.626;10.580;2023-07-13T02:51:47;28.20;99.90
35129;DHT22;21301;43.626;10.580;2023-07-13T02:54:13;28.20;99.90
35129;DHT22;21301;43.626;10.580;2023-07-13T03:00:04;28.20;99.90
35129;DHT22;21301;43.626;10.580;2023-07-13T03:02:32;28.10;1.00
35129;DHT22;21301;43.626;10.580;2023-07-13T03:04:59;28.10;99.90
35129;DHT22;21301;43.626;10.580;2023-07-13T03:07:24;27.90;99.90
35129;DHT22;21301;43.626;10.580;2023-07-13T03:09:56;27.80;99.90
35129;DHT22;21301;43.626;10.580;2023-07-13T03:12:24;27.80;99.90
35129;DHT22;21301;43.626;10.580;2023-07-13T03:14:51;27.80;83.40
35129;DHT22;21301;43.626;10.580;2023-07-13T03:17:19;27.90;1.00
35129;DHT22;21301;43.626;10.580;2023-07-13T03:19:46;27.90;99.90
35129;DHT22;21301;43.626;10.580;2023-07-13T03:22:19;28.00;99.90
35129;DHT22;21301;43.626;10.580;2023-07-13T03:24:46;28.00;99.90
35129;DHT22;21301;43.626;10.580;2023-07-13T03:27:12;28.10;20.40
35129;DHT22;21301;43.626;10.580;2023-07-13T03:29:41;28.20;99.90
35129;DHT22;21301;43.626;10.580;2023-07-13T03:32:08;28.30;99.90
35129;DHT22;21301;43.626;10.580;2023-07-13T03:34:35;28.20;99.90
35129;DHT22;21301;43.626;10.580;2023-07-13T03:37:04;28.10;99.90
35129;DHT22;21301;43.626;10.580;2023-07-13T03:39:30;28.00;99.90
35129;DHT22;21301;43.626;10.580;2023-07-13T03:41:58;28.10;99.90
35129;DHT22;21301;43.626;10.580;2023-07-13T03:44:25;28.00;86.90
35129;DHT22;21301;43.626;10.580;2023-07-13T03:46:55;28.10;74.30
35129;DHT22;21301;43.626;10.580;2023-07-13T03:49:22;28.10;54.50
35129;DHT22;21301;43.626;10.580;2023-07-13T03:51:48;28.10;80.60
35129;DHT22;21301;43.626;10.580;2023-07-13T03:54:15;28.10;97.20
35129;DHT22;21301;43.626;10.580;2023-07-13T03:56:41;28.20;99.90
35129;DHT22;21301;43.626;10.580;2023-07-13T03:59:09;28.10;99.90
35129;DHT22;21301;43.626;10.580;2023-07-13T04:01:36;28.10;99.90
35129;DHT22;21301;43.626;10.580;2023-07-13T04:04:10;28.20;99.90
35129;DHT22;21301;43.626;10.580;2023-07-13T04:06:37;28.20;1.00
35129;DHT22;21301;43.626;10.580;2023-07-13T04:09:04;28.10;12.90
35129;DHT22;21301;43.626;10.580;2023-07-13T04:11:34;28.10;79.60
35129;DHT22;21301;43.626;10.580;2023-07-13T04:14:02;28.10;33.70
35129;DHT22;21301;43.626;10.580;2023-07-13T04:16:28;28.10;99.90
35129;DHT22;21301;43.626;10.580;2023-07-13T04:18:54;28.00;99.90
35129;DHT22;21301;43.626;10.580;2023-07-13T04:21:26;28.10;99.90
35129;DHT22;21301;43.626;10.580;2023-07-13T04:23:53;27.90;99.90
35129;DHT22;21301;43.626;10.580;2023-07-13T04:26:19;28.10;99.90
35129;DHT22;21301;43.626;10.580;2023-07-13T04:28:47;28.20;59.60
35129;DHT22;21301;43.626;10.580;2023-07-13T04:31:14;28.20;99.90
35129;DHT22;21301;43.626;10.580;2023-07-13T04:33:40;28.20;99.90
35129;DHT22;21301;43.626;10.580;2023-07-13T04:36:06;28.20;99.90
35129;DHT22;21301;43.626;10.580;2023-07-13T04:38:35;28.20;99.90
35129;DHT22;21301;43.626;10.580;2023-07-13T04:41:06;28.20;99.90
35129;DHT22;21301;43.626;10.580;2023-07-13T04:43:32;28.20;83.00
35129;DHT22;21301;43.626;10.580;2023-07-13T04:46:07;28.20;99.90
35129;DHT22;21301;43.626;10.580;2023-07-13T04:48:33;28.20;99.90
35129;DHT22;21301;43.626;10.580;2023-07-13T04:51:02;28.20;86.40
35129;DHT22;21301;43.626;10.580;2023-07-13T04:53:28;28.40;99.90
35129;DHT22;21301;43.626;10.580;2023-07-13T04:55:54;28.30;99.90
35129;DHT22;21301;43.626;10.580;2023-07-13T04:58:21;28.30;99.90
35129;DHT22;21301;43.626;10.580;2023-07-13T05:00:47;28.40;99.90
35129;DHT22;21301;43.626;10.580;2023-07-13T05:03:13;28.30;99.90
35129;DHT22;21301;43.626;10.580;2023-07-13T05:05:38;28.40;99.90
35129;DHT22;21301;43.626;10.580;2023-07-13T05:08:04;28.50;99.90
35129;DHT22;21301;43.626;10.580;2023-07-13T05:10:30;28.60;96.00
35129;DHT22;21301;43.626;10.580;2023-07-13T05:12:56;28.40;99.90
35129;DHT22;21301;43.626;10.580;2023-07-13T05:15:22;28.50;14.20
35129;DHT22;21301;43.626;10.580;2023-07-13T05:17:51;28.60;99.90
35129;DHT22;21301;43.626;10.580;2023-07-13T05:20:17;28.70;99.90
35129;DHT22;21301;43.626;10.580;2023-07-13T05:22:43;28.70;99.90
35129;DHT22;21301;43.626;10.580;2023-07-13T05:25:10;28.80;1.00
35129;DHT22;21301;43.626;10.580;2023-07-13T05:27:38;28.90;99.90
35129;DHT22;21301;43.626;10.580;2023-07-13T05:30:04;29.00;99.90
35129;DHT22;21301;43.626;10.580;2023-07-13T05:32:31;29.00;99.90
35129;DHT22;21301;43.626;10.580;2023-07-13T05:34:57;29.00;99.90
35129;DHT22;21301;43.626;10.580;2023-07-13T05:37:23;29.10;54.20
35129;DHT22;21301;43.626;10.580;2023-07-13T05:39:49;28.90;99.90
35129;DHT22;21301;43.626;10.580;2023-07-13T05:42:14;29.00;74.30
35129;DHT22;21301;43.626;10.580;2023-07-13T05:48:40;28.70;99.90
35129;DHT22;21301;43.626;10.580;2023-07-13T05:55:08;29.10;1.00
35129;DHT22;21301;43.626;10.580;2023-07-13T05:57:34;29.20;99.90
35129;DHT22;21301;43.626;10.580;2023-07-13T06:00:02;29.20;99.90
35129;DHT22;21301;43.626;10.580;2023-07-13T06:02:48;29.10;99.90
35129;DHT22;21301;43.626;10.580;2023-07-13T06:05:15;29.10;99.90
35129;DHT22;21301;43.626;10.580;2023-07-13T06:07:41;29.10;1.00
35129;DHT22;21301;43.626;10.580;2023-07-13T06:13:49;29.20;99.90
35129;DHT22;21301;43.626;10.580;2023-07-13T06:19:56;29.50;99.90
35129;DHT22;21301;43.626;10.580;2023-07-13T06:22:22;29.40;99.90
35129;DHT22;21301;43.626;10.580;2023-07-13T06:24:47;29.40;99.90
35129;DHT22;21301;43.626;10.580;2023-07-13T06:27:14;29.50;87.80
35129;DHT22;21301;43.626;10.580;2023-07-13T06:29:39;29.60;25.20
35129;DHT22;21301;43.626;10.580;2023-07-13T06:32:08;29.50;1.00
35129;DHT22;21301;43.626;10.580;2023-07-13T06:34:33;29.50;1.00
35129;DHT22;21301;43.626;10.580;2023-07-13T06:40:39;29.60;99.90
35129;DHT22;21301;43.626;10.580;2023-07-13T06:43:05;29.60;99.90
35129;DHT22;21301;43.626;10.580;2023-07-13T06:45:36;29.60;99.90
35129;DHT22;21301;43.626;10.580;2023-07-13T06:48:05;29.70;99.90
35129;DHT22;21301;43.626;10.580;2023-07-13T06:50:32;29.80;99.90
35129;DHT22;21301;43.626;10.580;2023-07-13T06:52:58;29.90;99.90
35129;DHT22;21301;43.626;10.580;2023-07-13T06:55:25;29.90;99.90
35129;DHT22;21301;43.626;10.580;2023-07-13T06:57:55;29.80;99.90
35129;DHT22;21301;43.626;10.580;2023-07-13T07:00:21;29.80;99.90
35129;DHT22;21301;43.626;10.580;2023-07-13T07:02:47;29.70;99.90
35129;DHT22;21301;43.626;10.580;2023-07-13T07:08:49;29.70;99.90
35129;DHT22;21301;43.626;10.580;2023-07-13T07:11:18;29.60;99.90
35129;DHT22;21301;43.626;10.580;2023-07-13T07:14:05;29.70;99.90
35129;DHT22;21301;43.626;10.580;2023-07-13T07:47:23;30.70;99.90
35129;DHT22;21301;43.626;10.580;2023-07-13T07:49:49;30.70;99.90
35129;DHT22;21301;43.626;10.580;2023-07-13T07:52:15;30.70;99.90
35129;DHT22;21301;43.626;10.580;2023-07-13T08:09:39;30.50;99.90
35129;DHT22;21301;43.626;10.580;2023-07-13T08:12:06;30.50;99.90
35129;DHT22;21301;43.626;10.580;2023-07-13T08:14:33;30.50;99.90
35129;DHT22;21301;43.626;10.580;2023-07-13T08:16:58;30.60;99.90
35129;DHT22;21301;43.626;10.580;2023-07-13T08:19:24;30.60;99.90
35129;DHT22;21301;43.626;10.580;2023-07-13T08:21:50;30.70;99.90
35129;DHT22;21301;43.626;10.580;2023-07-13T08:24:16;30.80;99.90
35129;DHT22;21301;43.626;10.580;2023-07-13T08:26:45;30.80;99.90
35129;DHT22;21301;43.626;10.580;2023-07-13T08:29:11;30.80;99.90
35129;DHT22;21301;43.626;10.580;2023-07-13T08:31:37;30.50;99.90
35129;DHT22;21301;43.626;10.580;2023-07-13T08:34:03;30.20;97.50
35129;DHT22;21301;43.626;10.580;2023-07-13T08:36:29;29.90;99.90
35129;DHT22;21301;43.626;10.580;2023-07-13T08:38:55;29.90;1.00
35129;DHT22;21301;43.626;10.580;2023-07-13T08:41:21;29.40;98.40
35129;DHT22;21301;43.626;10.580;2023-07-13T08:43:54;29.40;99.90
35129;DHT22;21301;43.626;10.580;2023-07-13T08:49:17;29.40;42.60
35129;DHT22;21301;43.626;10.580;2023-07-13T08:51:57;29.70;99.90
35129;DHT22;21301;43.626;10.580;2023-07-13T08:54:40;29.90;99.90
35129;DHT22;21301;43.626;10.580;2023-07-13T08:57:52;30.50;99.90
35129;DHT22;21301;43.626;10.580;2023-07-13T09:00:19;30.40;60.70
35129;DHT22;21301;43.626;10.580;2023-07-13T09:02:52;30.10;99.90
35129;DHT22;21301;43.626;10.580;2023-07-13T09:05:30;30.20;99.90
35129;DHT22;21301;43.626;10.580;2023-07-13T09:17:29;30.40;99.90
35129;DHT22;21301;43.626;10.580;2023-07-13T09:20:10;30.60;99.90
35129;DHT22;21301;43.626;10.580;2023-07-13T09:22:41;30.60;99.90
35129;DHT22;21301;43.626;10.580;2023-07-13T09:25:34;30.60;99.90
35129;DHT22;21301;43.626;10.580;2023-07-13T09:34:02;30.50;99.90
35129;DHT22;21301;43.626;10.580;2023-07-13T09:36:32;30.50;99.90
35129;DHT22;21301;43.626;10.580;2023-07-13T09:44:33;30.40;99.90
35129;DHT22;21301;43.626;10.580;2023-07-13T09:47:00;30.10;99.90
35129;DHT22;21301;43.626;10.580;2023-07-13T09:49:31;29.80;99.90
35129;DHT22;21301;43.626;10.580;2023-07-13T09:52:04;30.00;1.00
35129;DHT22;21301;43.626;10.580;2023-07-13T09:54:35;29.90;99.90
35129;DHT22;21301;43.626;10.580;2023-07-13T09:57:12;30.00;99.90
35129;DHT22;21301;43.626;10.580;2023-07-13T09:59:42;29.80;99.90
35129;DHT22;21301;43.626;10.580;2023-07-13T10:05:14;30.00;99.90
35129;DHT22;21301;43.626;10.580;2023-07-13T10:07:45;30.00;1.00
35129;DHT22;21301;43.626;10.580;2023-07-13T10:10:17;30.20;99.90
35129;DHT22;21301;43.626;10.580;2023-07-13T10:12:44;30.30;99.90
35129;DHT22;21301;43.626;10.580;2023-07-13T10:15:21;30.10;99.90
35129;DHT22;21301;43.626;10.580;2023-07-13T10:17:48;30.10;1.00
35129;DHT22;21301;43.626;10.580;2023-07-13T10:20:15;29.70;1.00
35129;DHT22;21301;43.626;10.580;2023-07-13T10:23:02;29.70;99.90
35129;DHT22;21301;43.626;10.580;2023-07-13T10:25:33;29.70;99.90
35129;DHT22;21301;43.626;10.580;2023-07-13T10:28:11;29.90;99.90
35129;DHT22;21301;43.626;10.580;2023-07-13T10:30:43;30.00;99.90
35129;DHT22;21301;43.626;10.580;2023-07-13T10:33:13;30.20;99.90
35129;DHT22;21301;43.626;10.580;2023-07-13T10:36:11;30.20;99.90
35129;DHT22;21301;43.626;10.580;2023-07-13T10:38:38;31.20;1.00
35129;DHT22;21301;43.626;10.580;2023-07-13T10:41:29;31.80;99.90
35129;DHT22;21301;43.626;10.580;2023-07-13T10:44:48;32.00;1.00
35129;DHT22;21301;43.626;10.580;2023-07-13T10:47:15;31.60;99.90
35129;DHT22;21301;43.626;10.580;2023-07-13T10:49:43;31.10;99.90
35129;DHT22;21301;43.626;10.580;2023-07-13T10:55:59;31.20;99.90
35129;DHT22;21301;43.626;10.580;2023-07-13T11:04:29;31.60;1.00
35129;DHT22;21301;43.626;10.580;2023-07-13T11:07:16;31.90;1.00
35129;DHT22;21301;43.626;10.580;2023-07-13T11:09:44;31.80;99.90
35129;DHT22;21301;43.626;10.580;2023-07-13T11:23:07;31.60;99.90
35129;DHT22;21301;43.626;10.580;2023-07-13T11:25:35;31.50;10.50
35129;DHT22;21301;43.626;10.580;2023-07-13T11:30:46;32.10;99.90
35129;DHT22;21301;43.626;10.580;2023-07-13T11:33:14;32.50;1.00
35129;DHT22;21301;43.626;10.580;2023-07-13T11:38:39;32.40;99.90
35129;DHT22;21301;43.626;10.580;2023-07-13T11:41:29;32.00;99.90
35129;DHT22;21301;43.626;10.580;2023-07-13T11:44:06;32.20;1.00
35129;DHT22;21301;43.626;10.580;2023-07-13T11:46:32;32.60;99.90
35129;DHT22;21301;43.626;10.580;2023-07-13T11:48:58;32.60;99.90
35129;DHT22;21301;43.626;10.580;2023-07-13T11:51:54;33.10;99.90
35129;DHT22;21301;43.626;10.580;2023-07-13T11:56:50;32.40;99.90
35129;DHT22;21301;43.626;10.580;2023-07-13T11:59:16;32.20;99.90
35129;DHT22;21301;43.626;10.580;2023-07-13T12:01:46;32.30;1.00
35129;DHT22;21301;43.626;10.580;2023-07-13T12:04:30;32.40;99.90
35129;DHT22;21301;43.626;10.580;2023-07-13T12:07:03;32.00;99.90
35129;DHT22;21301;43.626;10.580;2023-07-13T12:09:29;31.80;99.90
35129;DHT22;21301;43.626;10.580;2023-07-13T12:11:57;32.10;99.90
35129;DHT22;21301;43.626;10.580;2023-07-13T12:14:26;32.20;29.40
35129;DHT22;21301;43.626;10.580;2023-07-13T12:16:53;32.60;99.90
35129;DHT22;21301;43.626;10.580;2023-07-13T12:19:27;32.40;99.90
35129;DHT22;21301;43.626;10.580;2023-07-13T12:21:56;32.30;44.30
35129;DHT22;21301;43.626;10.580;2023-07-13T12:24:24;32.20;10.40
35129;DHT22;21301;43.626;10.580;2023-07-13T12:30:40;31.80;99.90
35129;DHT22;21301;43.626;10.580;2023-07-13T12:33:08;31.60;99.90
35129;DHT22;21301;43.626;10.580;2023-07-13T12:35:47;31.90;4.70
35129;DHT22;21301;43.626;10.580;2023-07-13T12:38:15;32.60;1.00
35129;DHT22;21301;43.626;10.580;2023-07-13T12:40:41;32.60;99.90
35129;DHT22;21301;43.626;10.580;2023-07-13T12:43:14;32.30;34.10
35129;DHT22;21301;43.626;10.580;2023-07-13T12:46:05;32.10;98.40
35129;DHT22;21301;43.626;10.580;2023-07-13T12:48:42;31.60;1.20
35129;DHT22;21301;43.626;10.580;2023-07-13T12:51:13;31.80;99.90
35129;DHT22;21301;43.626;10.580;2023-07-13T12:53:47;32.20;97.10
35129;DHT22;21301;43.626;10.580;2023-07-13T12:56:19;32.00;77.20
35129;DHT22;21301;43.626;10.580;2023-07-13T12:58:47;31.40;99.90
35129;DHT22;21301;43.626;10.580;2023-07-13T13:01:21;31.30;99.90
35129;DHT22;21301;43.626;10.580;2023-07-13T13:03:50;31.60;38.50
35129;DHT22;21301;43.626;10.580;2023-07-13T13:06:28;31.60;99.90
35129;DHT22;21301;43.626;10.580;2023-07-13T13:08:59;31.70;99.90
35129;DHT22;21301;43.626;10.580;2023-07-13T13:11:28;31.80;99.90
35129;DHT22;21301;43.626;10.580;2023-07-13T13:13:54;31.80;99.90
35129;DHT22;21301;43.626;10.580;2023-07-13T13:16:35;32.00;99.90
35129;DHT22;21301;43.626;10.580;2023-07-13T13:19:16;32.60;99.90
35129;DHT22;21301;43.626;10.580;2023-07-13T13:21:44;32.50;99.90
35129;DHT22;21301;43.626;10.580;2023-07-13T13:24:19;32.10;99.90
35129;DHT22;21301;43.626;10.580;2023-07-13T13:26:46;32.00;99.90
35129;DHT22;21301;43.626;10.580;2023-07-13T13:29:17;31.80;99.90
35129;DHT22;21301;43.626;10.580;2023-07-13T13:31:44;32.30;99.90
35129;DHT22;21301;43.626;10.580;2023-07-13T13:34:15;32.20;99.90
35129;DHT22;21301;43.626;10.580;2023-07-13T13:40:35;32.50;99.90
35129;DHT22;21301;43.626;10.580;2023-07-13T13:43:01;32.20;99.90
35129;DHT22;21301;43.626;10.580;2023-07-13T13:45:28;32.10;99.90
35129;DHT22;21301;43.626;10.580;2023-07-13T13:47:55;32.20;99.90
35129;DHT22;21301;43.626;10.580;2023-07-13T13:50:21;32.50;99.90
35129;DHT22;21301;43.626;10.580;2023-07-13T13:52:50;32.20;99.90
35129;DHT22;21301;43.626;10.580;2023-07-13T13:55:20;32.00;99.90
35129;DHT22;21301;43.626;10.580;2023-07-13T13:58:09;32.00;99.90
35129;DHT22;21301;43.626;10.580;2023-07-13T14:00:39;32.00;99.90
35129;DHT22;21301;43.626;10.580;2023-07-13T14:03:17;31.90;99.90
35129;DHT22;21301;43.626;10.580;2023-07-13T14:05:44;32.10;99.90
35129;DHT22;21301;43.626;10.580;2023-07-13T14:08:19;32.50;99.90
35129;DHT22;21301;43.626;10.580;2023-07-13T14:10:48;32.80;99.90
35129;DHT22;21301;43.626;10.580;2023-07-13T14:16:42;32.70;99.90
35129;DHT22;21301;43.626;10.580;2023-07-13T14:19:11;32.60;99.90
35129;DHT22;21301;43.626;10.580;2023-07-13T14:21:37;32.50;99.90
35129;DHT22;21301;43.626;10.580;2023-07-13T14:24:03;32.40;99.90
35129;DHT22;21301;43.626;10.580;2023-07-13T14:26:35;32.50;95.80
35129;DHT22;21301;43.626;10.580;2023-07-13T14:29:02;32.40;91.60
35129;DHT22;21301;43.626;10.580;2023-07-13T14:31:39;32.70;68.40
35129;DHT22;21301;43.626;10.580;2023-07-13T14:34:04;32.80;28.20
35129;DHT22;21301;43.626;10.580;2023-07-13T14:39:52;32.80;44.10
35129;DHT22;21301;43.626;10.580;2023-07-13T14:42:30;32.80;63.30
35129;DHT22;21301;43.626;10.580;2023-07-13T14:44:56;32.30;87.10
35129;DHT22;21301;43.626;10.580;2023-07-13T14:47:22;32.50;82.40
35129;DHT22;21301;43.626;10.580;2023-07-13T14:49:48;32.30;99.90
35129;DHT22;21301;43.626;10.580;2023-07-13T14:52:51;32.20;99.90
35129;DHT22;21301;43.626;10.580;2023-07-13T14:55:17;32.20;99.90
35129;DHT22;21301;43.626;10.580;2023-07-13T14:57:44;32.10;99.90
35129;DHT22;21301;43.626;10.580;2023-07-13T15:00:16;32.30;99.90
35129;DHT22;21301;43.626;10.580;2023-07-13T15:02:51;32.40;99.90
35129;DHT22;21301;43.626;10.580;2023-07-13T15:05:31;32.60;99.90
35129;DHT22;21301;43.626;10.580;2023-07-13T15:07:59;32.40;69.00
35129;DHT22;21301;43.626;10.580;2023-07-13T15:10:31;32.40;98.10
35129;DHT22;21301;43.626;10.580;2023-07-13T15:13:20;32.80;46.50
35129;DHT22;21301;43.626;10.580;2023-07-13T15:15:49;33.20;1.00
35129;DHT22;21301;43.626;10.580;2023-07-13T15:18:17;33.30;1.00
35129;DHT22;21301;43.626;10.580;2023-07-13T15:20:44;33.10;99.90
35129;DHT22;21301;43.626;10.580;2023-07-13T15:23:11;32.90;99.90
35129;DHT22;21301;43.626;10.580;2023-07-13T15:25:37;33.10;99.90
35129;DHT22;21301;43.626;10.580;2023-07-13T15:28:03;33.10;99.90
35129;DHT22;21301;43.626;10.580;2023-07-13T15:30:33;33.20;99.90
35129;DHT22;21301;43.626;10.580;2023-07-13T15:33:16;33.10;99.90
35129;DHT22;21301;43.626;10.580;2023-07-13T15:35:45;32.80;99.90
35129;DHT22;21301;43.626;10.580;2023-07-13T15:38:19;32.60;99.90
35129;DHT22;21301;43.626;10.580;2023-07-13T15:40:49;32.60;1.00
35129;DHT22;21301;43.626;10.580;2023-07-13T15:43:16;32.90;1.00
35129;DHT22;21301;43.626;10.580;2023-07-13T15:45:44;33.00;99.90
35129;DHT22;21301;43.626;10.580;2023-07-13T15:48:20;33.10;99.90
35129;DHT22;21301;43.626;10.580;2023-07-13T15:50:51;32.90;99.90
35129;DHT22;21301;43.626;10.580;2023-07-13T15:53:21;32.90;99.90
35129;DHT22;21301;43.626;10.580;2023-07-13T15:55:48;32.90;1.00
35129;DHT22;21301;43.626;10.580;2023-07-13T15:58:15;32.90;1.00
35129;DHT22;21301;43.626;10.580;2023-07-13T16:00:41;32.70;1.00
35129;DHT22;21301;43.626;10.580;2023-07-13T16:03:10;33.00;1.00
35129;DHT22;21301;43.626;10.580;2023-07-13T16:05:39;33.00;99.90
35129;DHT22;21301;43.626;10.580;2023-07-13T16:08:06;32.90;1.00
35129;DHT22;21301;43.626;10.580;2023-07-13T16:10:40;32.50;99.90
35129;DHT22;21301;43.626;10.580;2023-07-13T16:13:13;32.20;1.00
35129;DHT22;21301;43.626;10.580;2023-07-13T16:15:39;32.20;1.00
35129;DHT22;21301;43.626;10.580;2023-07-13T16:18:11;32.40;1.00
35129;DHT22;21301;43.626;10.580;2023-07-13T16:20:46;32.10;1.00
35129;DHT22;21301;43.626;10.580;2023-07-13T16:23:14;32.30;1.00
35129;DHT22;21301;43.626;10.580;2023-07-13T16:25:40;32.00;1.00
35129;DHT22;21301;43.626;10.580;2023-07-13T16:28:09;32.20;1.00
35129;DHT22;21301;43.626;10.580;2023-07-13T16:30:35;32.20;1.00
35129;DHT22;21301;43.626;10.580;2023-07-13T16:33:03;32.30;1.00
35129;DHT22;21301;43.626;10.580;2023-07-13T16:35:36;32.20;13.30
35129;DHT22;21301;43.626;10.580;2023-07-13T16:38:30;32.40;1.00
35129;DHT22;21301;43.626;10.580;2023-07-13T16:40:56;32.30;1.00
35129;DHT22;21301;43.626;10.580;2023-07-13T16:43:23;32.30;1.00
35129;DHT22;21301;43.626;10.580;2023-07-13T16:45:49;32.40;1.00
35129;DHT22;21301;43.626;10.580;2023-07-13T16:48:21;32.50;1.00
35129;DHT22;21301;43.626;10.580;2023-07-13T16:50:53;32.50;1.00
35129;DHT22;21301;43.626;10.580;2023-07-13T16:53:53;32.40;1.00
35129;DHT22;21301;43.626;10.580;2023-07-13T16:56:29;32.40;30.00
35129;DHT22;21301;43.626;10.580;2023-07-13T16:58:55;32.00;99.90
35129;DHT22;21301;43.626;10.580;2023-07-13T17:01:39;31.40;99.90
35129;DHT22;21301;43.626;10.580;2023-07-13T17:04:11;31.70;99.90
35129;DHT22;21301;43.626;10.580;2023-07-13T17:06:37;32.00;99.90
35129;DHT22;21301;43.626;10.580;2023-07-13T17:09:11;31.60;99.90
35129;DHT22;21301;43.626;10.580;2023-07-13T17:11:40;31.30;44.40
35129;DHT22;21301;43.626;10.580;2023-07-13T17:14:13;31.10;99.90
35129;DHT22;21301;43.626;10.580;2023-07-13T17:16:40;30.90;1.00
35129;DHT22;21301;43.626;10.580;2023-07-13T17:19:11;30.80;38.70
35129;DHT22;21301;43.626;10.580;2023-07-13T17:21:38;30.70;1.00
35129;DHT22;21301;43.626;10.580;2023-07-13T17:24:16;31.00;99.90
35129;DHT22;21301;43.626;10.580;2023-07-13T17:26:47;31.20;99.90
35129;DHT22;21301;43.626;10.580;2023-07-13T17:29:14;30.80;1.00
35129;DHT22;21301;43.626;10.580;2023-07-13T17:31:41;30.90;99.90
35129;DHT22;21301;43.626;10.580;2023-07-13T17:34:16;31.00;99.90
35129;DHT22;21301;43.626;10.580;2023-07-13T17:36:48;30.80;99.90
35129;DHT22;21301;43.626;10.580;2023-07-13T17:39:17;30.60;99.90
35129;DHT22;21301;43.626;10.580;2023-07-13T17:41:48;30.40;99.90
35129;DHT22;21301;43.626;10.580;2023-07-13T17:44:15;30.20;1.00
35129;DHT22;21301;43.626;10.580;2023-07-13T17:46:42;30.10;49.30
35129;DHT22;21301;43.626;10.580;2023-07-13T17:49:27;30.00;99.90
35129;DHT22;21301;43.626;10.580;2023-07-13T17:52:00;30.10;99.90
35129;DHT22;21301;43.626;10.580;2023-07-13T17:54:35;30.10;99.90
35129;DHT22;21301;43.626;10.580;2023-07-13T17:57:02;30.00;99.90
35129;DHT22;21301;43.626;10.580;2023-07-13T17:59:29;29.90;99.90
35129;DHT22;21301;43.626;10.580;2023-07-13T18:01:56;29.80;99.90
35129;DHT22;21301;43.626;10.580;2023-07-13T18:04:25;29.70;99.90
35129;DHT22;21301;43.626;10.580;2023-07-13T18:06:52;29.70;99.90